Time;durP1;ratioP1;P1;durP2;ratioP2;P2;SDS_P1;SDS_P2;PMS_P1;PMS_P2;Temp;Humidity;BMP_temperature;BMP_pressure;BME280_temperature;BME280_humidity;BME280_pressure;Samples;Min_cycle;Max_cycle;Signal;HPM_P1;HPM_P2
2022/08/23 00:01:43;;;;;;;9.50;8.20;;;;;;;16.86;100.00;98521.98;104875;1273;73194;-71
2022/08/23 00:04:17;;;;;;;10.80;9.70;;;;;;;16.86;100.00;98524.16;104526;1273;61494;-69
2022/08/23 00:06:45;;;;;;;14.30;9.60;;;;;;;16.85;100.00;98526.09;104843;1273;62023;-72
2022/08/23 00:09:12;;;;;;;13.70;10.50;;;;;;;16.84;100.00;98525.41;104858;1273;75889;-69
2022/08/23 00:11:48;;;;;;;13.30;10.60;;;;;;;16.86;100.00;98526.91;104852;1273;70223;-70
2022/08/23 00:14:18;;;;;;;15.20;12.20;;;;;;;16.87;100.00;98529.25;104856;1273;73042;-70
2022/08/23 00:16:45;;;;;;;12.00;9.70;;;;;;;16.89;100.00;98528.89;104863;1272;61176;-74
2022/08/23 00:19:15;;;;;;;14.40;10.10;;;;;;;16.89;100.00;98530.88;104831;1273;61332;-71
2022/08/23 00:21:45;;;;;;;14.50;10.50;;;;;;;16.87;100.00;98528.91;104887;1273;76469;-70
2022/08/23 00:24:13;;;;;;;17.60;10.20;;;;;;;16.84;100.00;98529.73;104847;1273;70156;-70
2022/08/23 00:26:58;;;;;;;15.00;10.40;;;;;;;16.83;100.00;98526.48;104902;1273;73414;-70
2022/08/23 00:29:32;;;;;;;12.00;10.40;;;;;;;16.81;100.00;98528.65;104820;1273;61721;-72
2022/08/23 00:31:59;;;;;;;14.40;10.50;;;;;;;16.79;100.00;98533.67;104757;1273;61278;-69
2022/08/23 00:34:27;;;;;;;11.90;9.10;;;;;;;16.76;100.00;98535.59;104930;1273;76387;-70
2022/08/23 00:36:54;;;;;;;11.90;9.10;;;;;;;16.72;100.00;98536.34;104875;1273;70419;-70
2022/08/23 00:39:21;;;;;;;10.30;8.60;;;;;;;16.70;100.00;98537.97;104840;1273;74347;-70
2022/08/23 00:41:49;;;;;;;17.90;8.20;;;;;;;16.68;100.00;98549.27;104817;1274;61438;-69
2022/08/23 00:50:05;;;;;;;13.00;8.40;;;;;;;16.66;100.00;98547.52;104832;1273;69211;-70
2022/08/23 00:52:42;;;;;;;12.30;8.50;;;;;;;16.65;100.00;98544.70;104847;1273;74305;-70
2022/08/23 00:55:09;;;;;;;18.80;6.80;;;;;;;16.66;100.00;98548.54;104872;1273;61307;-69
2022/08/23 00:57:36;;;;;;;12.50;8.40;;;;;;;16.64;100.00;98545.70;104860;1273;61218;-72
2022/08/23 01:00:06;;;;;;;14.00;10.60;;;;;;;16.63;100.00;98542.36;104662;1273;74932;-71
2022/08/23 01:02:33;;;;;;;14.60;11.50;;;;;;;16.64;100.00;98542.50;104811;1273;69341;-70
2022/08/23 01:05:01;;;;;;;12.00;10.10;;;;;;;16.64;100.00;98543.17;104848;1273;73173;-71
2022/08/23 01:07:48;;;;;;;13.10;9.90;;;;;;;16.65;100.00;98541.79;104878;1273;61379;-72
2022/08/23 01:10:25;;;;;;;12.60;10.40;;;;;;;16.67;100.00;98544.89;104848;1271;61362;-71
2022/08/23 01:13:02;;;;;;;16.10;11.80;;;;;;;16.68;100.00;98539.86;104881;1273;75255;-71
2022/08/23 01:15:36;;;;;;;13.50;11.40;;;;;;;16.70;100.00;98541.88;104882;1273;69510;-72
2022/08/23 01:18:09;;;;;;;14.90;11.40;;;;;;;16.71;100.00;98547.86;104857;1273;73148;-71
2022/08/23 01:21:00;;;;;;;15.80;10.00;;;;;;;16.70;100.00;98547.45;104886;1273;61345;-71
2022/08/23 01:23:35;;;;;;;13.90;10.30;;;;;;;16.67;100.00;98549.54;104850;1273;61366;-74
2022/08/23 01:26:03;;;;;;;14.20;11.40;;;;;;;16.63;100.00;98548.88;104849;1273;75149;-71
2022/08/23 01:28:30;;;;;;;15.50;10.90;;;;;;;16.61;100.00;98548.69;104903;1273;69125;-71
2022/08/23 01:30:57;;;;;;;18.90;12.60;;;;;;;16.60;100.00;98546.64;104925;1273;74383;-71
2022/08/23 01:33:24;;;;;;;17.50;12.70;;;;;;;16.59;100.00;98548.73;104864;1273;61371;-71
2022/08/23 01:35:54;;;;;;;19.10;13.40;;;;;;;16.58;100.00;98548.83;104837;1274;61322;-69
2022/08/23 01:38:23;;;;;;;19.10;13.70;;;;;;;16.59;100.00;98550.90;104887;1273;75148;-71
2022/08/23 01:40:50;;;;;;;18.90;12.90;;;;;;;16.59;100.00;98546.05;104907;1273;70359;-70
2022/08/23 01:43:20;;;;;;;17.00;12.80;;;;;;;16.59;100.00;98548.95;104661;1274;73226;-70
2022/08/23 01:45:50;;;;;;;19.70;14.30;;;;;;;16.58;100.00;98547.08;104642;1274;61403;-69
2022/08/23 01:48:18;;;;;;;22.10;15.30;;;;;;;16.59;100.00;98549.09;104848;1274;61394;-70
2022/08/23 01:50:45;;;;;;;19.20;13.70;;;;;;;16.60;100.00;98548.06;104770;1273;77596;-70
2022/08/23 01:53:12;;;;;;;20.40;14.30;;;;;;;16.62;100.00;98543.61;104868;1273;61409;-72
2022/08/23 01:55:41;;;;;;;18.40;14.00;;;;;;;16.62;100.00;98538.60;104903;1273;72546;-71
2022/08/23 01:58:08;;;;;;;18.20;13.30;;;;;;;16.61;100.00;98544.92;104881;1273;61281;-71
2022/08/23 02:00:38;;;;;;;18.50;13.60;;;;;;;16.61;100.00;98543.98;104865;1273;61394;-69
2022/08/23 02:03:07;;;;;;;21.30;14.20;;;;;;;16.61;100.00;98551.39;104850;1273;75222;-71
2022/08/23 02:05:36;;;;;;;17.50;13.70;;;;;;;16.62;100.00;98548.25;104856;1273;70301;-70
2022/08/23 02:10:50;;;;;;;21.50;14.20;;;;;;;16.65;100.00;98557.56;104841;1273;61436;-70
2022/08/23 02:13:18;;;;;;;17.20;13.70;;;;;;;16.67;100.00;98562.77;104869;1273;62328;-70
2022/08/23 02:15:46;;;;;;;18.30;14.10;;;;;;;16.69;100.00;98562.08;104828;1274;76380;-70
2022/08/23 02:18:12;;;;;;;21.80;15.10;;;;;;;16.71;100.00;98567.46;104860;1273;69217;-69
2022/08/23 02:20:44;;;;;;;19.50;14.90;;;;;;;16.73;100.00;98561.34;104828;1274;74686;-70
2022/08/23 02:23:11;;;;;;;19.70;15.30;;;;;;;16.75;100.00;98557.70;104879;1273;61423;-69
2022/08/23 02:25:39;;;;;;;20.00;14.60;;;;;;;16.78;100.00;98560.52;104864;1273;62056;-70
2022/08/23 02:28:06;;;;;;;19.10;15.20;;;;;;;16.79;100.00;98562.56;104891;1273;76299;-71
2022/08/23 02:30:32;;;;;;;22.00;15.30;;;;;;;16.79;100.00;98562.89;104860;1273;69236;-70
2022/08/23 02:32:59;;;;;;;18.20;13.60;;;;;;;16.80;100.00;98561.76;104871;1273;61432;-72
2022/08/23 02:35:26;;;;;;;21.00;15.70;;;;;;;16.79;100.00;98562.54;104841;1273;61294;-70
2022/08/23 02:37:53;;;;;;;22.20;14.50;;;;;;;16.79;100.00;98556.86;104877;1273;61400;-70
2022/08/23 02:40:21;;;;;;;25.10;15.20;;;;;;;16.80;100.00;98556.05;104844;1274;76417;-70
2022/08/23 02:42:48;;;;;;;20.00;13.80;;;;;;;16.79;100.00;98555.36;104874;1273;69147;-70
2022/08/23 02:45:16;;;;;;;16.90;12.90;;;;;;;16.80;100.00;98554.24;104844;1273;73234;-70
2022/08/23 02:47:44;;;;;;;15.80;13.20;;;;;;;16.80;100.00;98554.59;104856;1273;61296;-70
2022/08/23 02:50:11;;;;;;;21.30;13.40;;;;;;;16.80;100.00;98553.67;104853;1274;62102;-70
2022/08/23 02:52:38;;;;;;;21.70;13.70;;;;;;;16.80;100.00;98551.52;104839;1273;76403;-70
2022/08/23 02:55:06;;;;;;;20.20;14.90;;;;;;;16.80;100.00;98549.91;104808;1274;69362;-69
2022/08/23 02:57:33;;;;;;;21.50;19.20;;;;;;;16.79;100.00;98550.86;104653;1274;73440;-70
2022/08/23 02:59:59;;;;;;;23.40;19.90;;;;;;;16.78;100.00;98550.86;104854;1273;61288;-72
2022/08/23 03:02:26;;;;;;;23.50;17.90;;;;;;;16.75;100.00;98550.55;104663;1274;61359;-71
2022/08/23 03:04:52;;;;;;;18.80;15.30;;;;;;;16.72;100.00;98556.59;104856;1273;61409;-72
2022/08/23 03:07:19;;;;;;;22.60;14.70;;;;;;;16.71;100.00;98562.16;104664;1273;61265;-69
2022/08/23 03:09:45;;;;;;;20.90;15.10;;;;;;;16.68;100.00;98571.89;104808;1273;61280;-70
2022/08/23 03:12:12;;;;;;;21.30;15.90;;;;;;;16.67;100.00;98571.61;104627;1274;61460;-70
2022/08/23 03:14:38;;;;;;;21.20;15.20;;;;;;;16.66;100.00;98570.17;104652;1275;61288;-70
2022/08/23 03:17:06;;;;;;;23.70;15.40;;;;;;;16.67;100.00;98571.95;104813;1273;76555;-71
2022/08/23 03:19:33;;;;;;;21.60;16.20;;;;;;;16.68;100.00;98572.76;104737;1273;69427;-70
2022/08/23 03:22:00;;;;;;;20.40;15.70;;;;;;;16.69;100.00;98578.95;104824;1273;74561;-70
2022/08/23 03:24:27;;;;;;;19.10;14.90;;;;;;;16.71;100.00;98580.42;104874;1273;61302;-72
2022/08/23 03:26:53;;;;;;;23.60;16.20;;;;;;;16.72;100.00;98585.66;104859;1273;61307;-70
2022/08/23 03:29:20;;;;;;;24.80;17.00;;;;;;;16.73;100.00;98585.56;104852;1273;76265;-70
2022/08/23 03:31:46;;;;;;;22.70;16.00;;;;;;;16.75;100.00;98582.48;104859;1273;70203;-69
2022/08/23 03:34:13;;;;;;;23.30;16.10;;;;;;;16.77;100.00;98582.52;104839;1273;73407;-71
2022/08/23 03:36:40;;;;;;;23.30;16.30;;;;;;;16.78;100.00;98574.52;104646;1273;61320;-69
2022/08/23 03:39:07;;;;;;;22.70;16.70;;;;;;;16.78;100.00;98567.73;104689;1274;61374;-70
2022/08/23 03:41:33;;;;;;;27.90;18.80;;;;;;;16.77;100.00;98569.73;104872;1273;75499;-70
2022/08/23 03:44:00;;;;;;;25.40;17.80;;;;;;;16.77;100.00;98576.72;104872;1273;70767;-70
2022/08/23 03:46:27;;;;;;;24.40;17.70;;;;;;;16.78;100.00;98577.50;104748;1274;74357;-70
2022/08/23 03:48:58;;;;;;;28.30;17.90;;;;;;;16.80;100.00;98583.25;104836;1274;61256;-70
2022/08/23 03:51:26;;;;;;;26.20;18.50;;;;;;;16.82;100.00;98586.81;104870;1273;61999;-71
2022/08/23 03:53:53;;;;;;;28.40;19.70;;;;;;;16.84;100.00;98591.83;104915;1273;75255;-70
2022/08/23 03:56:28;;;;;;;30.40;20.50;;;;;;;16.86;100.00;98587.54;104847;1273;69479;-70
2022/08/23 03:58:57;;;;;;;29.00;19.50;;;;;;;16.88;100.00;98589.67;104843;1274;74414;-71
2022/08/23 04:01:24;;;;;;;34.50;21.00;;;;;;;16.91;100.00;98593.48;104948;1273;61436;-70
2022/08/23 04:03:50;;;;;;;31.50;20.30;;;;;;;16.93;100.00;98594.54;104649;1276;61369;-69
2022/08/23 04:06:17;;;;;;;34.10;22.00;;;;;;;16.94;100.00;98598.22;104879;1273;75381;-72
2022/08/23 04:08:45;;;;;;;36.70;22.80;;;;;;;16.95;100.00;98604.41;104879;1274;69358;-70
2022/08/23 04:11:13;;;;;;;40.50;22.40;;;;;;;16.97;100.00;98610.33;104850;1273;74107;-70
2022/08/23 04:13:40;;;;;;;38.80;22.80;;;;;;;16.99;100.00;98609.41;104808;1274;61421;-70
2022/08/23 04:16:07;;;;;;;42.70;23.70;;;;;;;17.00;100.00;98610.70;104980;1273;61362;-70
2022/08/23 04:18:35;;;;;;;42.30;24.50;;;;;;;17.02;100.00;98603.71;104709;1277;75477;-70
2022/08/23 04:21:08;;;;;;;39.80;23.50;;;;;;;17.03;100.00;98605.88;104866;1274;69180;-70
2022/08/23 04:23:37;;;;;;;40.10;22.60;;;;;;;17.07;100.00;98609.67;104853;1274;73867;-72
2022/08/23 04:26:06;;;;;;;40.60;22.60;;;;;;;17.09;100.00;98607.77;104870;1274;61297;-71
2022/08/23 04:28:32;;;;;;;38.80;22.20;;;;;;;17.13;100.00;98610.52;104843;1274;61458;-71
2022/08/23 04:31:00;;;;;;;38.60;21.90;;;;;;;17.16;100.00;98607.85;104834;1273;75584;-73
2022/08/23 04:33:30;;;;;;;39.40;21.70;;;;;;;17.22;100.00;98606.66;104866;1274;69348;-71
2022/08/23 04:35:59;;;;;;;36.90;21.80;;;;;;;17.31;100.00;98611.33;104882;1274;73294;-70
2022/08/23 04:38:26;;;;;;;39.00;22.50;;;;;;;17.40;100.00;98617.46;104892;1273;63142;-71
2022/08/23 04:43:42;;;;;;;32.10;21.10;;;;;;;17.52;100.00;98608.47;104828;1273;76505;-71
2022/08/23 04:46:10;;;;;;;37.60;26.00;;;;;;;17.58;100.00;98612.05;104864;1274;70364;-70
2022/08/23 04:48:37;;;;;;;39.70;28.40;;;;;;;17.68;100.00;98612.80;104883;1274;74531;-71
2022/08/23 04:51:03;;;;;;;35.30;23.90;;;;;;;17.75;100.00;98614.97;104844;1273;61327;-69
2022/08/23 04:53:33;;;;;;;31.10;21.50;;;;;;;17.78;100.00;98617.73;104872;1274;61358;-69
2022/08/23 04:56:02;;;;;;;33.90;21.40;;;;;;;17.81;100.00;98617.27;104843;1273;75367;-70
2022/08/23 04:58:30;;;;;;;33.70;20.50;;;;;;;17.85;100.00;98619.41;104892;1274;70253;-72
2022/08/23 05:00:59;;;;;;;34.20;21.90;;;;;;;17.85;100.00;98625.70;104847;1273;73333;-70
2022/08/23 05:03:28;;;;;;;31.90;20.40;;;;;;;17.82;100.00;98625.60;104702;1274;61388;-71
2022/08/23 05:05:56;;;;;;;33.60;21.10;;;;;;;17.83;100.00;98624.63;104958;1274;61409;-69
2022/08/23 05:08:24;;;;;;;33.20;23.10;;;;;;;17.88;100.00;98629.26;104923;1274;75090;-72
2022/08/23 05:10:51;;;;;;;37.30;22.70;;;;;;;17.98;100.00;98626.68;104641;1276;68144;-70
2022/08/23 05:13:18;;;;;;;37.10;23.80;;;;;;;18.08;100.00;98624.19;104845;1273;74480;-71
2022/08/23 05:15:48;;;;;;;34.90;22.80;;;;;;;18.19;100.00;98627.18;104823;1274;61416;-70
2022/08/23 05:18:15;;;;;;;33.90;22.20;;;;;;;18.27;100.00;98632.67;104869;1274;61391;-71
2022/08/23 05:20:41;;;;;;;31.80;22.10;;;;;;;18.32;100.00;98632.81;104878;1273;61391;-71
2022/08/23 05:23:08;;;;;;;29.70;20.70;;;;;;;18.34;100.00;98631.40;104835;1274;61410;-70
2022/08/23 05:25:50;;;;;;;33.30;21.10;;;;;;;18.37;100.00;98638.42;104823;1273;74216;-71
2022/08/23 05:28:21;;;;;;;27.80;19.30;;;;;;;18.45;100.00;98642.58;104834;1274;61305;-71
2022/08/23 05:31:03;;;;;;;31.10;20.60;;;;;;;18.50;100.00;98642.67;104917;1274;61863;-72
2022/08/23 05:33:33;;;;;;;27.60;20.30;;;;;;;18.52;100.00;98644.38;104835;1274;76535;-72
2022/08/23 05:36:01;;;;;;;25.20;18.70;;;;;;;18.60;100.00;98643.39;104894;1274;69242;-72
2022/08/23 05:38:27;;;;;;;31.30;20.50;;;;;;;18.69;100.00;98648.02;104627;1274;74444;-70
2022/08/23 05:40:56;;;;;;;28.40;19.90;;;;;;;18.79;100.00;98652.14;104814;1273;61330;-70
2022/08/23 05:43:24;;;;;;;26.90;21.30;;;;;;;18.91;100.00;98651.82;104895;1274;61168;-71
2022/08/23 05:46:04;;;;;;;31.10;23.80;;;;;;;19.02;100.00;98653.89;104874;1274;74313;-71
2022/08/23 05:48:33;;;;;;;31.00;22.80;;;;;;;19.11;100.00;98652.88;104861;1274;70433;-70
2022/08/23 05:51:09;;;;;;;29.50;22.30;;;;;;;19.14;100.00;98652.08;104865;1274;74381;-69
2022/08/23 05:53:37;;;;;;;30.70;22.00;;;;;;;19.19;100.00;98650.77;104848;1274;61282;-70
2022/08/23 05:56:12;;;;;;;28.20;23.90;;;;;;;19.24;100.00;98655.80;104863;1274;62173;-71
2022/08/23 05:58:39;;;;;;;29.70;23.90;;;;;;;19.33;100.00;98660.94;104834;1274;75228;-71
2022/08/23 06:01:06;;;;;;;27.90;21.50;;;;;;;19.38;100.00;98671.42;104859;1274;69603;-70
2022/08/23 06:03:32;;;;;;;25.30;20.70;;;;;;;19.38;100.00;98674.86;104847;1273;74688;-69
2022/08/23 06:06:00;;;;;;;25.40;21.80;;;;;;;19.39;100.00;98674.69;104844;1274;61381;-71
2022/08/23 06:08:27;;;;;;;25.90;21.80;;;;;;;19.43;100.00;98678.19;104861;1274;61368;-71
2022/08/23 06:11:11;;;;;;;25.10;21.70;;;;;;;19.46;100.00;98672.13;104843;1274;76095;-72
2022/08/23 06:13:40;;;;;;;22.70;20.30;;;;;;;19.41;100.00;98674.67;104824;1274;69530;-72
2022/08/23 06:16:07;;;;;;;25.70;20.90;;;;;;;19.29;100.00;98679.45;104900;1274;74192;-70
2022/08/23 06:18:33;;;;;;;24.90;21.60;;;;;;;19.18;100.00;98684.90;104836;1274;61281;-72
2022/08/23 06:21:09;;;;;;;25.90;22.10;;;;;;;19.14;100.00;98684.98;104855;1273;61384;-72
2022/08/23 06:23:36;;;;;;;26.90;21.90;;;;;;;19.23;100.00;98686.70;104873;1274;76614;-70
2022/08/23 06:26:16;;;;;;;25.80;22.00;;;;;;;19.38;100.00;98686.94;104889;1274;70514;-71
2022/08/23 06:28:51;;;;;;;26.80;22.90;;;;;;;19.54;100.00;98682.27;104843;1274;72365;-71
2022/08/23 06:31:44;;;;;;;23.90;20.00;;;;;;;19.74;100.00;98683.17;104848;1274;61342;-71
2022/08/23 06:34:12;;;;;;;21.50;19.20;;;;;;;19.98;100.00;98684.85;104831;1274;61383;-71
2022/08/23 06:36:39;;;;;;;23.40;19.80;;;;;;;20.21;100.00;98684.76;104719;1275;73431;-71
2022/08/23 06:39:08;;;;;;;21.80;19.50;;;;;;;20.43;100.00;98686.71;104913;1274;70460;-69
2022/08/23 06:41:35;;;;;;;22.40;19.70;;;;;;;20.62;100.00;98684.14;104741;1274;73598;-70
2022/08/23 06:44:02;;;;;;;22.90;20.50;;;;;;;20.84;100.00;98683.73;104679;1274;61220;-71
2022/08/23 06:46:30;;;;;;;23.30;20.20;;;;;;;21.01;100.00;98687.10;104898;1274;62396;-70
2022/08/23 06:48:58;;;;;;;22.80;19.40;;;;;;;21.13;100.00;98688.98;104861;1273;75690;-70
2022/08/23 06:51:27;;;;;;;22.80;20.50;;;;;;;21.18;100.00;98689.89;104672;1274;69660;-71
2022/08/23 06:53:56;;;;;;;22.40;20.00;;;;;;;21.09;100.00;98690.02;104911;1274;73171;-71
2022/08/23 06:56:25;;;;;;;24.10;21.60;;;;;;;21.04;100.00;98691.45;104835;1274;61205;-71
2022/08/23 06:58:53;;;;;;;20.50;18.30;;;;;;;21.06;100.00;98694.35;104868;1274;61346;-70
2022/08/23 07:01:33;;;;;;;19.70;17.50;;;;;;;21.04;100.00;98688.54;104848;1274;76335;-71
2022/08/23 07:04:02;;;;;;;20.30;18.30;;;;;;;20.96;100.00;98687.94;104830;1274;70190;-71
2022/08/23 07:06:29;;;;;;;22.30;19.90;;;;;;;21.05;100.00;98688.37;104904;1274;73165;-71
2022/08/23 07:08:57;;;;;;;21.40;18.80;;;;;;;21.16;100.00;98691.48;104869;1274;61391;-70
2022/08/23 07:11:25;;;;;;;19.50;17.30;;;;;;;21.29;100.00;98693.82;104904;1274;61413;-71
2022/08/23 07:13:52;;;;;;;20.60;18.40;;;;;;;21.41;100.00;98693.50;104836;1274;75094;-70
2022/08/23 07:16:19;;;;;;;20.30;18.10;;;;;;;21.52;100.00;98692.45;104681;1274;69072;-70
2022/08/23 07:18:48;;;;;;;21.20;17.90;;;;;;;21.63;100.00;98697.52;104841;1274;74148;-71
2022/08/23 07:21:15;;;;;;;20.60;18.40;;;;;;;21.61;100.00;98698.76;104936;1274;61519;-70
2022/08/23 07:23:44;;;;;;;18.70;16.80;;;;;;;21.68;100.00;98700.45;104842;1274;61448;-70
2022/08/23 07:26:13;;;;;;;16.70;14.80;;;;;;;21.77;100.00;98701.12;104827;1274;76853;-71
2022/08/23 07:28:40;;;;;;;17.80;15.90;;;;;;;21.87;100.00;98704.45;104780;1274;68947;-69
2022/08/23 07:31:07;;;;;;;14.60;13.10;;;;;;;22.00;100.00;98704.73;104881;1274;74409;-71
2022/08/23 07:33:34;;;;;;;16.20;14.60;;;;;;;22.08;100.00;98706.95;104869;1274;61360;-70
2022/08/23 07:36:01;;;;;;;17.00;14.60;;;;;;;22.15;100.00;98706.29;104893;1274;61853;-71
2022/08/23 07:38:28;;;;;;;15.70;14.10;;;;;;;22.25;100.00;98707.72;104886;1274;75396;-71
2022/08/23 07:40:55;;;;;;;14.50;13.10;;;;;;;22.37;100.00;98705.90;104912;1274;70412;-71
2022/08/23 07:43:22;;;;;;;17.90;15.30;;;;;;;22.48;100.00;98702.14;104835;1274;73200;-70
2022/08/23 07:45:49;;;;;;;17.50;15.80;;;;;;;22.59;100.00;98701.92;104837;1274;61425;-70
2022/08/23 07:48:15;;;;;;;17.50;15.80;;;;;;;22.65;100.00;98702.88;104878;1274;62132;-70
2022/08/23 07:50:53;;;;;;;17.50;15.80;;;;;;;22.84;100.00;98708.25;104863;1273;75728;-71
2022/08/23 07:53:20;;;;;;;16.00;14.40;;;;;;;23.16;100.00;98712.75;104888;1274;69261;-72
2022/08/23 07:55:47;;;;;;;15.80;14.20;;;;;;;23.32;100.00;98713.81;104881;1274;72897;-71
2022/08/23 07:58:14;;;;;;;17.30;14.00;;;;;;;23.39;100.00;98720.05;104845;1274;61369;-71
2022/08/23 08:00:41;;;;;;;13.40;12.20;;;;;;;23.37;100.00;98721.99;104852;1274;62088;-70
2022/08/23 08:03:08;;;;;;;13.10;11.90;;;;;;;23.39;100.00;98722.35;104849;1274;75079;-70
2022/08/23 08:05:36;;;;;;;13.00;11.70;;;;;;;23.39;100.00;98725.11;104856;1273;70115;-70
2022/08/23 08:08:04;;;;;;;14.20;12.70;;;;;;;23.30;100.00;98729.38;104868;1274;73442;-71
2022/08/23 08:10:32;;;;;;;15.40;13.80;;;;;;;23.14;100.00;98729.09;104877;1274;61378;-71
2022/08/23 08:12:59;;;;;;;15.40;13.70;;;;;;;22.95;100.00;98733.11;104873;1274;61222;-71
2022/08/23 08:15:25;;;;;;;17.20;15.40;;;;;;;22.83;100.00;98729.14;104844;1274;61316;-70
2022/08/23 08:17:52;;;;;;;17.80;15.90;;;;;;;22.69;100.00;98725.34;104586;1274;70553;-71
2022/08/23 08:20:20;;;;;;;18.20;16.40;;;;;;;22.60;100.00;98726.27;104864;1274;73257;-70
2022/08/23 08:22:48;;;;;;;18.20;16.20;;;;;;;22.55;100.00;98734.46;104845;1274;61353;-70
2022/08/23 08:25:14;;;;;;;18.90;16.30;;;;;;;22.51;100.00;98738.04;104851;1274;61925;-72
2022/08/23 08:27:42;;;;;;;17.70;15.80;;;;;;;22.42;100.00;98739.89;104869;1273;77047;-73
2022/08/23 08:30:09;;;;;;;18.40;16.40;;;;;;;22.38;100.00;98745.27;104802;1273;70193;-70
2022/08/23 08:32:36;;;;;;;18.40;16.40;;;;;;;22.28;100.00;98749.29;104863;1273;74781;-68
2022/08/23 08:35:06;;;;;;;18.10;16.20;;;;;;;22.19;100.00;98753.98;104824;1274;61404;-72
2022/08/23 08:37:32;;;;;;;20.10;18.10;;;;;;;22.13;100.00;98758.96;104848;1273;61390;-72
2022/08/23 08:39:59;;;;;;;19.80;17.80;;;;;;;22.14;100.00;98761.43;104676;1274;75318;-73
2022/08/23 08:43:11;;;;;;;19.00;17.20;;;;;;;22.19;100.00;98759.48;104862;1273;68792;-71
2022/08/23 08:46:04;;;;;;;20.60;18.40;;;;;;;22.29;100.00;98761.29;104308;1281;73272;-70
2022/08/23 08:48:39;;;;;;;21.30;18.80;;;;;;;22.43;100.00;98765.52;104099;1282;61373;-70
2022/08/23 08:51:19;;;;;;;20.60;18.10;;;;;;;22.51;100.00;98768.92;104149;1283;61559;-72
2022/08/23 08:53:49;;;;;;;20.10;18.00;;;;;;;22.60;100.00;98768.10;104071;1283;76153;-71
2022/08/23 08:56:28;;;;;;;20.10;17.70;;;;;;;22.68;100.00;98764.83;104160;1283;69517;-71
2022/08/23 08:59:01;;;;;;;21.10;18.30;;;;;;;22.75;100.00;98767.23;104094;1283;72349;-71
2022/08/23 09:01:33;;;;;;;19.70;17.60;;;;;;;22.84;100.00;98767.15;104250;1282;61920;-71
2022/08/23 09:04:02;;;;;;;20.20;18.10;;;;;;;23.00;100.00;98770.84;104097;1283;62166;-70
2022/08/23 09:06:28;;;;;;;19.10;17.10;;;;;;;23.13;100.00;98775.98;104098;1283;76440;-69
2022/08/23 09:09:13;;;;;;;19.30;17.40;;;;;;;23.24;100.00;98776.51;104077;1283;70773;-70
2022/08/23 09:11:49;;;;;;;19.80;17.80;;;;;;;23.34;100.00;98780.14;104096;1282;74536;-71
2022/08/23 09:14:15;;;;;;;19.00;17.10;;;;;;;23.42;100.00;98775.83;103861;1285;61525;-71
2022/08/23 09:16:55;;;;;;;19.50;17.60;;;;;;;23.48;100.00;98779.90;104100;1283;61693;-70
2022/08/23 09:19:24;;;;;;;17.80;16.10;;;;;;;23.53;100.00;98780.30;104145;1283;76286;-70
2022/08/23 09:22:01;;;;;;;18.70;16.60;;;;;;;23.59;100.00;98784.23;104655;1273;70787;-71
2022/08/23 09:24:29;;;;;;;18.30;16.50;;;;;;;23.68;100.00;98784.98;104844;1274;74947;-71
2022/08/23 09:26:57;;;;;;;18.80;16.70;;;;;;;23.74;100.00;98787.66;104850;1274;61282;-70
2022/08/23 09:29:27;;;;;;;19.10;17.10;;;;;;;23.76;100.00;98787.05;104869;1273;61333;-69
2022/08/23 09:31:57;;;;;;;;;;;;;;;23.74;100.00;98783.17;104899;1273;75300;-71
2022/08/23 09:34:35;;;;;;;18.60;16.80;;;;;;;23.64;100.00;98789.23;104861;1273;69504;-71
2022/08/23 09:37:10;;;;;;;18.20;16.40;;;;;;;23.56;100.00;98787.84;104830;1274;73483;-70
2022/08/23 09:39:39;;;;;;;18.70;16.90;;;;;;;23.54;100.00;98791.06;104850;1273;61173;-71
2022/08/23 09:42:28;;;;;;;19.40;17.60;;;;;;;23.51;100.00;98793.79;104894;1273;61340;-71
2022/08/23 09:44:55;;;;;;;20.20;18.20;;;;;;;23.52;100.00;98794.98;104834;1273;76261;-70
2022/08/23 09:47:32;;;;;;;17.70;16.10;;;;;;;23.54;100.00;98792.80;104881;1273;69175;-71
2022/08/23 09:50:22;;;;;;;17.80;16.10;;;;;;;23.58;100.00;98793.20;104869;1273;74468;-71
2022/08/23 09:52:56;;;;;;;18.30;16.50;;;;;;;23.67;100.00;98795.08;104853;1273;61401;-71
2022/08/23 09:55:36;;;;;;;18.50;16.80;;;;;;;23.82;100.00;98792.64;104865;1273;62061;-69
2022/08/23 09:58:14;;;;;;;18.50;16.70;;;;;;;23.92;100.00;98796.52;104887;1273;75075;-70
2022/08/23 10:00:42;;;;;;;18.90;17.10;;;;;;;23.93;100.00;98792.74;104861;1273;69573;-72
2022/08/23 10:03:38;;;;;;;19.50;17.60;;;;;;;23.95;100.00;98790.52;104835;1273;74202;-71
2022/08/23 10:06:07;;;;;;;18.20;16.40;;;;;;;23.94;100.00;98794.23;104238;1282;61426;-71
2022/08/23 10:08:50;;;;;;;18.10;16.30;;;;;;;23.82;100.00;98798.11;104225;1281;61439;-71
2022/08/23 10:11:23;;;;;;;18.90;17.00;;;;;;;23.74;100.00;98802.55;103910;1282;75264;-72
2022/08/23 10:13:51;;;;;;;19.10;17.10;;;;;;;23.66;100.00;98809.13;104236;1282;69569;-70
2022/08/23 10:16:46;;;;;;;20.70;18.80;;;;;;;23.58;100.00;98812.39;104236;1282;73190;-70
2022/08/23 10:19:28;;;;;;;22.70;20.40;;;;;;;23.50;100.00;98817.47;104220;1282;61387;-71
2022/08/23 10:22:25;;;;;;;24.80;22.00;;;;;;;23.53;100.00;98816.20;104214;1282;61275;-70
2022/08/23 10:25:15;;;;;;;20.60;18.60;;;;;;;23.50;100.00;98814.76;104261;1282;75475;-70
2022/08/23 10:30:40;;;;;;;22.20;20.10;;;;;;;23.52;100.00;98815.77;104207;1282;74710;-72
2022/08/23 10:33:25;;;;;;;19.80;17.90;;;;;;;23.74;100.00;98813.80;104241;1282;61306;-69
2022/08/23 10:36:26;;;;;;;20.20;18.30;;;;;;;23.98;100.00;98819.52;104263;1282;61183;-70
2022/08/23 10:39:17;;;;;;;19.60;17.70;;;;;;;24.15;100.00;98821.16;104232;1281;75121;-70
2022/08/23 10:42:09;;;;;;;19.20;17.40;;;;;;;24.25;100.00;98819.91;104240;1282;70424;-71
2022/08/23 10:45:02;;;;;;;19.20;17.20;;;;;;;24.36;100.00;98817.05;104888;1274;73313;-72
2022/08/23 10:47:46;;;;;;;19.20;17.30;;;;;;;24.66;100.00;98816.11;104896;1273;61372;-71
2022/08/23 10:50:19;;;;;;;20.30;18.50;;;;;;;24.91;100.00;98812.73;104860;1273;61352;-71
2022/08/23 10:53:29;;;;;;;20.80;18.80;;;;;;;24.91;100.00;98809.66;104840;1273;76536;-72
2022/08/23 10:56:03;;;;;;;21.50;19.40;;;;;;;24.94;100.00;98812.84;103420;1290;69213;-71
2022/08/23 10:58:37;;;;;;;19.60;18.00;;;;;;;24.93;100.00;98811.95;103403;1290;73293;-72
2022/08/23 11:01:06;;;;;;;19.80;18.00;;;;;;;25.15;100.00;98808.16;103437;1290;61524;-73
2022/08/23 11:03:40;;;;;;;20.00;18.10;;;;;;;25.39;100.00;98810.69;103274;1291;61642;-70
2022/08/23 11:06:35;;;;;;;21.00;19.20;;;;;;;25.58;100.00;98813.01;103483;1290;74512;-70
2022/08/23 11:09:16;;;;;;;20.30;18.40;;;;;;;25.82;100.00;98810.45;103452;1289;70619;-70
2022/08/23 11:11:48;;;;;;;19.40;17.60;;;;;;;26.19;100.00;98809.42;103429;1290;74468;-72
2022/08/23 11:14:32;;;;;;;19.50;17.50;;;;;;;26.47;100.00;98812.23;103434;1290;61366;-72
2022/08/23 11:17:02;;;;;;;18.20;16.50;;;;;;;26.88;100.00;98812.02;103248;1290;62163;-71
2022/08/23 11:19:47;;;;;;;;;;;;;;;27.16;100.00;98812.10;103577;1290;75173;-71
2022/08/23 11:22:19;;;;;;;19.90;18.00;;;;;;;27.44;100.00;98814.73;103433;1289;70203;-72
2022/08/23 11:24:54;;;;;;;21.10;19.20;;;;;;;27.52;100.00;98818.11;103081;1291;73872;-72
2022/08/23 11:27:33;;;;;;;20.00;18.10;;;;;;;27.48;100.00;98816.98;103428;1290;61246;-72
2022/08/23 11:30:31;;;;;;;19.70;17.80;;;;;;;27.33;100.00;98821.16;103448;1290;61240;-71
2022/08/23 11:33:25;;;;;;;20.00;18.20;;;;;;;27.16;100.00;98826.37;103889;1273;75219;-71
2022/08/23 11:35:54;;;;;;;19.00;17.30;;;;;;;27.14;100.00;98824.34;104169;1282;69745;-73